Thunder radar more information blitzortung!


Radar de pluja more information rain snow radar


Visita la nostra xarxa de llocs de meteo:

Template documentation
and downloads

And another site



No particular awareness of the weather is required.    There are no Weather-warnings

Pagina Historial Weather Underground text

Diari Resum January 18, 2018 Unitats:  Tant    Imperial   Mètric
« Previous Dia
SegĂźent Dia »
Diari Setmana Mensual Anual Personalitzada
  Maxima: Minima: Media:
Temperatura: TemperatureC °F /  -17.8 °C 3.7 °F /  -15.7 °C 8.2 °F /  -13.2 °C
Punt de rosada: DewpointC °F /  -17.8 °C -2.5 °F /  -19.2 °C 0.2 °F /  -17.7 °C
Humitat: Humidity % 50 % 57 %
Wind Speed: WindSpeedKMH mph /  0 km/h - 4.1 mph /  6.6 km/h
RĂ fegues de vent: WindSpeedGustKMH mph /  0 km/h - -
Vent:- - SSE
Pression baro: PressurehPa in /  0 hPa 1016.8 in /  34428.8 hPa -
Precipitacions: 0.0 in /  0 mm    
Historical Graphs
 
 
Dades de taula per January 18, 2018
Temps Temperatura Punt de rosada Pression baro Vent Wind Speed RĂ fegues de vent Humitat Rainfall Rate (Hourly)
TemperatureC °F /  -17.8 °C DewpointC °F /  -17.8 °C PressurehPa in /  0 hPa Calm     Humidity % HourlyPrecipMM in /  0 mm
00:00 5.1 °F /  -14.9 °C -1.8 °F /  -18.8 °C 1024.9 in /  34703.1 hPa Calm     61 % 0.0 in /  0 mm
00:03 9.2 °F /  -12.7 °C -0.4 °F /  -18 °C 1026.0 in /  34740.4 hPa WNW 3.9 mph /  6.3 km/h 3.9 mph /  6.3 km/h 51 % 0.0 in /  0 mm
00:08 9.2 °F /  -12.7 °C -0.2 °F /  -17.9 °C 1026.0 in /  34740.4 hPa NNE 1.9 mph /  3.1 km/h 1.9 mph /  3.1 km/h 52 % 0.0 in /  0 mm
00:10 5.1 °F /  -14.9 °C -1.6 °F /  -18.7 °C 1023.9 in /  34669.3 hPa Calm   1.6 mph /  2.6 km/h 62 % 0.0 in /  0 mm
00:13 9.2 °F /  -12.7 °C -0.2 °F /  -17.9 °C 1026.0 in /  34740.4 hPa WNW 3.7 mph /  6 km/h 3.7 mph /  6 km/h 52 % 0.0 in /  0 mm
00:18 9.2 °F /  -12.7 °C -0.2 °F /  -17.9 °C 1026.0 in /  34740.4 hPa NNE 7.6 mph /  12.2 km/h 7.6 mph /  12.2 km/h 52 % 0.0 in /  0 mm
00:20 5.0 °F /  -15 °C -1.7 °F /  -18.7 °C 1023.9 in /  34669.3 hPa NNW 1.6 mph /  2.6 km/h 1.6 mph /  2.6 km/h 62 % 0.0 in /  0 mm
00:23 9.1 °F /  -12.7 °C -0.3 °F /  -17.9 °C 1026.0 in /  34740.4 hPa NNE 3.7 mph /  6 km/h 3.7 mph /  6 km/h 52 % 0.0 in /  0 mm
00:28 9.0 °F /  -12.8 °C -0.3 °F /  -17.9 °C 1026.0 in /  34740.4 hPa ENE 3.9 mph /  6.3 km/h 3.9 mph /  6.3 km/h 52 % 0.0 in /  0 mm
00:29 9.0 °F /  -12.8 °C -0.3 °F /  -17.9 °C 1026.0 in /  34740.4 hPa ENE 7.4 mph /  11.9 km/h 7.4 mph /  11.9 km/h 52 % 0.0 in /  0 mm
00:30 5.0 °F /  -15 °C -1.7 °F /  -18.7 °C 1023.9 in /  34669.3 hPa North 1.6 mph /  2.6 km/h 3.2 mph /  5.1 km/h 62 % 0.0 in /  0 mm
00:34 9.0 °F /  -12.8 °C -0.3 °F /  -17.9 °C 1026.0 in /  34740.4 hPa North 3.7 mph /  6 km/h 3.7 mph /  6 km/h 52 % 0.0 in /  0 mm
00:39 9.0 °F /  -12.8 °C -0.3 °F /  -17.9 °C 1026.0 in /  34740.4 hPa North 5.6 mph /  9 km/h 5.6 mph /  9 km/h 52 % 0.0 in /  0 mm
00:40 5.0 °F /  -15 °C -1.7 °F /  -18.7 °C 1024.9 in /  34703.1 hPa NW 1.6 mph /  2.6 km/h 3.2 mph /  5.1 km/h 62 % 0.0 in /  0 mm
00:44 9.0 °F /  -12.8 °C -0.3 °F /  -17.9 °C 1026.0 in /  34740.4 hPa NW 5.6 mph /  9 km/h 5.6 mph /  9 km/h 52 % 0.0 in /  0 mm
00:49 9.0 °F /  -12.8 °C -0.3 °F /  -17.9 °C 1026.0 in /  34740.4 hPa NNW 3.9 mph /  6.3 km/h 3.9 mph /  6.3 km/h 52 % 0.0 in /  0 mm
00:50 5.0 °F /  -15 °C -1.7 °F /  -18.7 °C 1024.9 in /  34703.1 hPa WNW 1.6 mph /  2.6 km/h 1.6 mph /  2.6 km/h 62 % 0.0 in /  0 mm
00:54 8.9 °F /  -12.8 °C -0.4 °F /  -18 °C 1026.0 in /  34740.4 hPa NNE 3.7 mph /  6 km/h 3.7 mph /  6 km/h 52 % 0.0 in /  0 mm
00:59 8.9 °F /  -12.8 °C -0.4 °F /  -18 °C 1026.0 in /  34740.4 hPa West 7.4 mph /  11.9 km/h 7.4 mph /  11.9 km/h 52 % 0.0 in /  0 mm
01:00 4.8 °F /  -15.1 °C -1.9 °F /  -18.8 °C 1024.9 in /  34703.1 hPa Calm   3.2 mph /  5.1 km/h 62 % 0.0 in /  0 mm
01:04 8.9 °F /  -12.8 °C -0.2 °F /  -17.9 °C 1026.0 in /  34740.4 hPa Calm     53 % 0.0 in /  0 mm
01:09 8.8 °F /  -12.9 °C -0.3 °F /  -17.9 °C 1026.0 in /  34740.4 hPa NNE 3.7 mph /  6 km/h 3.7 mph /  6 km/h 53 % 0.0 in /  0 mm
01:10 4.7 °F /  -15.2 °C -1.8 °F /  -18.8 °C 1024.9 in /  34703.1 hPa NW 1.6 mph /  2.6 km/h 3.2 mph /  5.1 km/h 63 % 0.0 in /  0 mm
01:14 8.7 °F /  -12.9 °C -0.3 °F /  -17.9 °C 1026.0 in /  34740.4 hPa NNE 3.7 mph /  6 km/h 3.7 mph /  6 km/h 53 % 0.0 in /  0 mm
01:19 8.7 °F /  -12.9 °C -0.3 °F /  -17.9 °C 1026.0 in /  34740.4 hPa WNW 3.7 mph /  6 km/h 3.7 mph /  6 km/h 53 % 0.0 in /  0 mm
01:20 4.6 °F /  -15.2 °C -1.8 °F /  -18.8 °C 1024.9 in /  34703.1 hPa NNE 1.6 mph /  2.6 km/h 6.4 mph /  10.3 km/h 63 % 0.0 in /  0 mm
01:24 8.6 °F /  -13 °C -0.4 °F /  -18 °C 1026.0 in /  34740.4 hPa West 1.9 mph /  3.1 km/h   53 % 0.0 in /  0 mm
01:29 8.5 °F /  -13.1 °C -0.6 °F /  -18.1 °C 1026.0 in /  34740.4 hPa NW 1.9 mph /  3.1 km/h   53 % 0.0 in /  0 mm
01:30 4.5 °F /  -15.3 °C -1.9 °F /  -18.8 °C 1024.9 in /  34703.1 hPa NE 3.2 mph /  5.1 km/h 4.8 mph /  7.7 km/h 63 % 0.0 in /  0 mm
01:34 8.5 °F /  -13.1 °C -0.6 °F /  -18.1 °C 1026.0 in /  34740.4 hPa WNW 3.7 mph /  6 km/h 3.7 mph /  6 km/h 53 % 0.0 in /  0 mm
01:39 8.5 °F /  -13.1 °C -0.6 °F /  -18.1 °C 1026.0 in /  34740.4 hPa WNW 3.7 mph /  6 km/h 3.7 mph /  6 km/h 53 % 0.0 in /  0 mm
01:40 4.4 °F /  -15.3 °C -2.1 °F /  -18.9 °C 1024.9 in /  34703.1 hPa NNE 1.6 mph /  2.6 km/h 6.4 mph /  10.3 km/h 63 % 0.0 in /  0 mm
01:44 8.5 °F /  -13.1 °C -0.3 °F /  -17.9 °C 1026.0 in /  34740.4 hPa ENE 3.7 mph /  6 km/h 3.7 mph /  6 km/h 54 % 0.0 in /  0 mm
01:49 8.5 °F /  -13.1 °C -0.3 °F /  -17.9 °C 1026.0 in /  34740.4 hPa Calm     54 % 0.0 in /  0 mm
01:50 4.3 °F /  -15.4 °C -2.1 °F /  -18.9 °C 1026.0 in /  34740.4 hPa North 1.6 mph /  2.6 km/h 4.8 mph /  7.7 km/h 63 % 0.0 in /  0 mm
01:54 8.4 °F /  -13.1 °C -0.4 °F /  -18 °C 1026.0 in /  34740.4 hPa Calm     54 % 0.0 in /  0 mm
01:59 8.4 °F /  -13.1 °C -0.4 °F /  -18 °C 1026.0 in /  34740.4 hPa North 3.5 mph /  5.6 km/h   54 % 0.0 in /  0 mm
02:00 4.2 °F /  -15.4 °C -2.0 °F /  -18.9 °C 1026.0 in /  34740.4 hPa NE 1.6 mph /  2.6 km/h 4.8 mph /  7.7 km/h 64 % 0.0 in /  0 mm
02:04 8.3 °F /  -13.2 °C -0.5 °F /  -18.1 °C 1026.0 in /  34740.4 hPa NNE 3.7 mph /  6 km/h 3.7 mph /  6 km/h 54 % 0.0 in /  0 mm
02:09 8.3 °F /  -13.2 °C -0.5 °F /  -18.1 °C 1026.0 in /  34740.4 hPa ENE 3.7 mph /  6 km/h 3.7 mph /  6 km/h 54 % 0.0 in /  0 mm
02:10 4.0 °F /  -15.6 °C -2.2 °F /  -19 °C 1026.0 in /  34740.4 hPa Calm   4.8 mph /  7.7 km/h 64 % 0.0 in /  0 mm
02:14 8.2 °F /  -13.2 °C -0.6 °F /  -18.1 °C 1026.0 in /  34740.4 hPa Calm     54 % 0.0 in /  0 mm
02:19 8.1 °F /  -13.3 °C -0.7 °F /  -18.2 °C 1026.0 in /  34740.4 hPa NNW 3.9 mph /  6.3 km/h 3.9 mph /  6.3 km/h 54 % 0.0 in /  0 mm
02:20 3.9 °F /  -15.6 °C -2.5 °F /  -19.2 °C 1026.0 in /  34740.4 hPa NNE 4.8 mph /  7.7 km/h 4.8 mph /  7.7 km/h 63 % 0.0 in /  0 mm
02:24 8.1 °F /  -13.3 °C -0.7 °F /  -18.2 °C 1026.0 in /  34740.4 hPa North 3.7 mph /  6 km/h 3.7 mph /  6 km/h 54 % 0.0 in /  0 mm
02:29 8.0 °F /  -13.3 °C -0.8 °F /  -18.2 °C 1026.0 in /  34740.4 hPa WNW 1.9 mph /  3.1 km/h   54 % 0.0 in /  0 mm
02:30 3.9 °F /  -15.6 °C -2.3 °F /  -19.1 °C 1026.0 in /  34740.4 hPa North 1.6 mph /  2.6 km/h 3.2 mph /  5.1 km/h 64 % 0.0 in /  0 mm
02:34 7.9 °F /  -13.4 °C -0.8 °F /  -18.2 °C 1026.0 in /  34740.4 hPa NE 3.7 mph /  6 km/h 3.7 mph /  6 km/h 54 % 0.0 in /  0 mm
02:39 7.8 °F /  -13.4 °C -0.9 °F /  -18.3 °C 1026.0 in /  34740.4 hPa West 1.9 mph /  3.1 km/h 1.9 mph /  3.1 km/h 54 % 0.0 in /  0 mm
02:40 4.1 °F /  -15.5 °C -2.1 °F /  -18.9 °C 1026.0 in /  34740.4 hPa North 3.2 mph /  5.1 km/h 4.8 mph /  7.7 km/h 64 % 0.0 in /  0 mm
02:44 7.7 °F /  -13.5 °C -0.8 °F /  -18.2 °C 1026.0 in /  34740.4 hPa Calm     55 % 0.0 in /  0 mm
02:49 7.6 °F /  -13.6 °C -0.9 °F /  -18.3 °C 1024.9 in /  34703.1 hPa West 1.9 mph /  3.1 km/h 1.9 mph /  3.1 km/h 55 % 0.0 in /  0 mm
02:50 4.3 °F /  -15.4 °C -1.7 °F /  -18.7 °C 1024.9 in /  34703.1 hPa North 1.6 mph /  2.6 km/h 3.2 mph /  5.1 km/h 65 % 0.0 in /  0 mm
02:54 7.3 °F /  -13.7 °C -1.2 °F /  -18.4 °C 1024.9 in /  34703.1 hPa Calm     55 % 0.0 in /  0 mm
02:59 7.2 °F /  -13.8 °C -1.2 °F /  -18.4 °C 1024.9 in /  34703.1 hPa Calm     55 % 0.0 in /  0 mm
03:00 4.8 °F /  -15.1 °C -1.2 °F /  -18.4 °C 1024.9 in /  34703.1 hPa Calm   3.2 mph /  5.1 km/h 65 % 0.0 in /  0 mm
03:04 7.1 °F /  -13.8 °C -1.1 °F /  -18.4 °C 1026.0 in /  34740.4 hPa Calm     56 % 0.0 in /  0 mm
03:09 7.0 °F /  -13.9 °C -1.2 °F /  -18.4 °C 1026.0 in /  34740.4 hPa Calm     56 % 0.0 in /  0 mm
03:10 5.2 °F /  -14.9 °C -0.8 °F /  -18.2 °C 1026.0 in /  34740.4 hPa North 1.6 mph /  2.6 km/h 3.2 mph /  5.1 km/h 65 % 0.0 in /  0 mm
03:14 6.9 °F /  -13.9 °C -1.3 °F /  -18.5 °C 1026.0 in /  34740.4 hPa Calm     56 % 0.0 in /  0 mm
03:19 6.9 °F /  -13.9 °C -1.1 °F /  -18.4 °C 1026.0 in /  34740.4 hPa NNW 3.7 mph /  6 km/h 3.7 mph /  6 km/h 57 % 0.0 in /  0 mm
03:20 5.7 °F /  -14.6 °C -0.6 °F /  -18.1 °C 1024.9 in /  34703.1 hPa NE 1.6 mph /  2.6 km/h 4.8 mph /  7.7 km/h 64 % 0.0 in /  0 mm
03:24 6.8 °F /  -14 °C -1.1 °F /  -18.4 °C 1026.0 in /  34740.4 hPa Calm     57 % 0.0 in /  0 mm
03:29 6.8 °F /  -14 °C -1.1 °F /  -18.4 °C 1026.0 in /  34740.4 hPa West 3.7 mph /  6 km/h 3.7 mph /  6 km/h 57 % 0.0 in /  0 mm
03:30 5.7 °F /  -14.6 °C -0.8 °F /  -18.2 °C 1024.9 in /  34703.1 hPa NE 4.8 mph /  7.7 km/h 4.8 mph /  7.7 km/h 63 % 0.0 in /  0 mm
03:34 6.8 °F /  -14 °C -1.1 °F /  -18.4 °C 1024.9 in /  34703.1 hPa Calm     57 % 0.0 in /  0 mm
03:39 6.8 °F /  -14 °C -1.1 °F /  -18.4 °C 1024.9 in /  34703.1 hPa Calm     57 % 0.0 in /  0 mm
03:40 6.0 °F /  -14.4 °C -0.3 °F /  -17.9 °C 1027.0 in /  34774.2 hPa NE 1.6 mph /  2.6 km/h 3.2 mph /  5.1 km/h 64 % 0.0 in /  0 mm
03:44 6.8 °F /  -14 °C -1.1 °F /  -18.4 °C 1024.9 in /  34703.1 hPa NW 3.7 mph /  6 km/h   57 % 0.0 in /  0 mm
03:50 5.8 °F /  -14.6 °C -0.7 °F /  -18.2 °C 1026.0 in /  34740.4 hPa NE 4.8 mph /  7.7 km/h 4.8 mph /  7.7 km/h 63 % 0.0 in /  0 mm
04:00 6.1 °F /  -14.4 °C -0.4 °F /  -18 °C 1026.0 in /  34740.4 hPa NE 3.2 mph /  5.1 km/h 4.8 mph /  7.7 km/h 63 % 0.0 in /  0 mm
04:10 6.3 °F /  -14.3 °C -0.4 °F /  -18 °C 1026.0 in /  34740.4 hPa NE 4.8 mph /  7.7 km/h 4.8 mph /  7.7 km/h 62 % 0.0 in /  0 mm
04:20 6.7 °F /  -14.1 °C -0.1 °F /  -17.8 °C 1024.9 in /  34703.1 hPa NE 3.2 mph /  5.1 km/h 4.8 mph /  7.7 km/h 62 % 0.0 in /  0 mm
10:23 7.0 °F /  -13.9 °C 0.2 °F /  -17.7 °C 1024.9 in /  34703.1 hPa NNE 3.7 mph /  6 km/h 3.7 mph /  6 km/h 62 % 0.0 in /  0 mm
10:28 6.8 °F /  -14 °C 0.0 °F /  -17.8 °C 1024.9 in /  34703.1 hPa NNE 9.3 mph /  15 km/h 9.3 mph /  15 km/h 62 % 0.0 in /  0 mm
10:33 7.1 °F /  -13.8 °C 0.3 °F /  -17.6 °C 1026.0 in /  34740.4 hPa NNE 5.3 mph /  8.5 km/h 5.3 mph /  8.5 km/h 62 % 0.0 in /  0 mm
10:38 7.3 °F /  -13.7 °C 0.5 °F /  -17.5 °C 1026.0 in /  34740.4 hPa ENE 3.7 mph /  6 km/h 3.7 mph /  6 km/h 62 % 0.0 in /  0 mm
10:43 7.4 °F /  -13.7 °C 0.4 °F /  -17.6 °C 1026.0 in /  34740.4 hPa NNE 5.6 mph /  9 km/h 5.6 mph /  9 km/h 61 % 0.0 in /  0 mm
10:48 7.3 °F /  -13.7 °C 0.3 °F /  -17.6 °C 1026.0 in /  34740.4 hPa NE 7.4 mph /  11.9 km/h 7.4 mph /  11.9 km/h 61 % 0.0 in /  0 mm
10:53 7.2 °F /  -13.8 °C 0.2 °F /  -17.7 °C 1026.0 in /  34740.4 hPa NE 9.3 mph /  15 km/h 9.3 mph /  15 km/h 61 % 0.0 in /  0 mm
10:58 7.7 °F /  -13.5 °C 0.7 °F /  -17.4 °C 1026.0 in /  34740.4 hPa NE 11.1 mph /  17.9 km/h 11.1 mph /  17.9 km/h 61 % 0.0 in /  0 mm
11:03 7.6 °F /  -13.6 °C 0.6 °F /  -17.4 °C 1024.9 in /  34703.1 hPa ENE 11.1 mph /  17.9 km/h 11.1 mph /  17.9 km/h 61 % 0.0 in /  0 mm
11:08 7.6 °F /  -13.6 °C 0.6 °F /  -17.4 °C 1024.9 in /  34703.1 hPa ENE 10.8 mph /  17.4 km/h 10.8 mph /  17.4 km/h 61 % 0.0 in /  0 mm
11:13 7.7 °F /  -13.5 °C 0.7 °F /  -17.4 °C 1024.9 in /  34703.1 hPa NNW 7.4 mph /  11.9 km/h 7.4 mph /  11.9 km/h 61 % 0.0 in /  0 mm
11:18 8.3 °F /  -13.2 °C 1.2 °F /  -17.1 °C 1026.0 in /  34740.4 hPa WNW 7.4 mph /  11.9 km/h 7.4 mph /  11.9 km/h 61 % 0.0 in /  0 mm
11:23 8.4 °F /  -13.1 °C 1.3 °F /  -17.1 °C 1026.0 in /  34740.4 hPa North 5.6 mph /  9 km/h 5.6 mph /  9 km/h 61 % 0.0 in /  0 mm
11:28 8.1 °F /  -13.3 °C 0.8 °F /  -17.3 °C 1026.0 in /  34740.4 hPa NNE 9.3 mph /  15 km/h 9.3 mph /  15 km/h 60 % 0.0 in /  0 mm
11:33 8.0 °F /  -13.3 °C 0.7 °F /  -17.4 °C 1026.0 in /  34740.4 hPa NNW 9.3 mph /  15 km/h 9.3 mph /  15 km/h 60 % 0.0 in /  0 mm
11:38 8.0 °F /  -13.3 °C 0.7 °F /  -17.4 °C 1026.0 in /  34740.4 hPa NNE 9.3 mph /  15 km/h 9.3 mph /  15 km/h 60 % 0.0 in /  0 mm
11:43 8.2 °F /  -13.2 °C 0.9 °F /  -17.3 °C 1026.0 in /  34740.4 hPa NNE 11.1 mph /  17.9 km/h 11.1 mph /  17.9 km/h 60 % 0.0 in /  0 mm
11:48 8.1 °F /  -13.3 °C 0.8 °F /  -17.3 °C 1026.0 in /  34740.4 hPa NNE 11.1 mph /  17.9 km/h 11.1 mph /  17.9 km/h 60 % 0.0 in /  0 mm
11:53 8.1 °F /  -13.3 °C 0.8 °F /  -17.3 °C 1026.0 in /  34740.4 hPa ENE 13.0 mph /  20.9 km/h 13.0 mph /  20.9 km/h 60 % 0.0 in /  0 mm
11:58 8.3 °F /  -13.2 °C 1.0 °F /  -17.2 °C 1026.0 in /  34740.4 hPa NNE 7.4 mph /  11.9 km/h 7.4 mph /  11.9 km/h 60 % 0.0 in /  0 mm
12:03 8.3 °F /  -13.2 °C 1.0 °F /  -17.2 °C 1024.9 in /  34703.1 hPa NNE 9.3 mph /  15 km/h 9.3 mph /  15 km/h 60 % 0.0 in /  0 mm
12:08 8.3 °F /  -13.2 °C 1.0 °F /  -17.2 °C 1024.9 in /  34703.1 hPa NE 9.3 mph /  15 km/h 9.3 mph /  15 km/h 60 % 0.0 in /  0 mm
12:13 8.4 °F /  -13.1 °C 1.1 °F /  -17.2 °C 1024.9 in /  34703.1 hPa NNE 13.0 mph /  20.9 km/h 13.0 mph /  20.9 km/h 60 % 0.0 in /  0 mm
12:18 8.5 °F /  -13.1 °C 1.2 °F /  -17.1 °C 1023.9 in /  34669.3 hPa NNE 10.0 mph /  16.1 km/h 10.0 mph /  16.1 km/h 60 % 0.0 in /  0 mm
12:19 8.5 °F /  -13.1 °C 1.2 °F /  -17.1 °C 1023.9 in /  34669.3 hPa NNE 10.0 mph /  16.1 km/h 10.0 mph /  16.1 km/h 60 % 0.0 in /  0 mm
12:24 8.6 °F /  -13 °C 1.3 °F /  -17.1 °C 1023.9 in /  34669.3 hPa ENE 13.0 mph /  20.9 km/h 13.0 mph /  20.9 km/h 60 % 0.0 in /  0 mm
12:29 9.0 °F /  -12.8 °C 1.4 °F /  -17 °C 1023.9 in /  34669.3 hPa ENE 11.1 mph /  17.9 km/h 11.1 mph /  17.9 km/h 59 % 0.0 in /  0 mm
12:34 9.2 °F /  -12.7 °C 1.6 °F /  -16.9 °C 1023.9 in /  34669.3 hPa ENE 5.6 mph /  9 km/h 6.1 mph /  9.8 km/h 59 % 0.0 in /  0 mm
12:39 9.3 °F /  -12.6 °C 1.7 °F /  -16.8 °C 1023.9 in /  34669.3 hPa North 9.3 mph /  15 km/h 9.3 mph /  15 km/h 59 % 0.0 in /  0 mm
12:44 9.5 °F /  -12.5 °C 1.9 °F /  -16.7 °C 1023.9 in /  34669.3 hPa East 3.7 mph /  6 km/h 3.9 mph /  6.3 km/h 59 % 0.0 in /  0 mm
12:49 9.7 °F /  -12.4 °C 2.1 °F /  -16.6 °C 1022.9 in /  34635.4 hPa WSW 5.6 mph /  9 km/h 5.6 mph /  9 km/h 59 % 0.0 in /  0 mm
12:54 9.6 °F /  -12.4 °C 1.7 °F /  -16.8 °C 1022.9 in /  34635.4 hPa NNE 10.8 mph /  17.4 km/h 10.8 mph /  17.4 km/h 58 % 0.0 in /  0 mm
12:59 9.4 °F /  -12.6 °C 1.6 °F /  -16.9 °C 1022.9 in /  34635.4 hPa NE 5.6 mph /  9 km/h 5.6 mph /  9 km/h 58 % 0.0 in /  0 mm
13:04 9.5 °F /  -12.5 °C 1.6 °F /  -16.9 °C 1022.9 in /  34635.4 hPa NNE 9.3 mph /  15 km/h 9.3 mph /  15 km/h 58 % 0.0 in /  0 mm
13:09 9.8 °F /  -12.3 °C 1.9 °F /  -16.7 °C 1022.9 in /  34635.4 hPa North 9.3 mph /  15 km/h 9.3 mph /  15 km/h 58 % 0.0 in /  0 mm
13:14 9.7 °F /  -12.4 °C 1.6 °F /  -16.9 °C 1022.9 in /  34635.4 hPa ENE 8.7 mph /  14 km/h 8.7 mph /  14 km/h 57 % 0.0 in /  0 mm
13:19 9.8 °F /  -12.3 °C 1.7 °F /  -16.8 °C 1023.9 in /  34669.3 hPa NNE 7.4 mph /  11.9 km/h 7.4 mph /  11.9 km/h 57 % 0.0 in /  0 mm
13:24 10.1 °F /  -12.2 °C 1.9 °F /  -16.7 °C 1023.9 in /  34669.3 hPa NNW 7.4 mph /  11.9 km/h 7.4 mph /  11.9 km/h 57 % 0.0 in /  0 mm
13:29 10.2 °F /  -12.1 °C 2.1 °F /  -16.6 °C 1023.9 in /  34669.3 hPa NNE 9.3 mph /  15 km/h 9.3 mph /  15 km/h 57 % 0.0 in /  0 mm
13:34 10.1 °F /  -12.2 °C 1.7 °F /  -16.8 °C 1022.9 in /  34635.4 hPa NE 7.4 mph /  11.9 km/h 7.4 mph /  11.9 km/h 56 % 0.0 in /  0 mm
13:39 10.0 °F /  -12.2 °C 1.6 °F /  -16.9 °C 1022.9 in /  34635.4 hPa ENE 9.3 mph /  15 km/h 9.3 mph /  15 km/h 56 % 0.0 in /  0 mm
13:44 10.3 °F /  -12.1 °C 2.2 °F /  -16.6 °C 1022.9 in /  34635.4 hPa NE 6.1 mph /  9.8 km/h 6.1 mph /  9.8 km/h 57 % 0.0 in /  0 mm
13:49 10.2 °F /  -12.1 °C 1.8 °F /  -16.8 °C 1022.9 in /  34635.4 hPa NNE 9.3 mph /  15 km/h 9.3 mph /  15 km/h 56 % 0.0 in /  0 mm
13:54 10.5 °F /  -11.9 °C 2.1 °F /  -16.6 °C 1022.9 in /  34635.4 hPa ENE 10.0 mph /  16.1 km/h 10.0 mph /  16.1 km/h 56 % 0.0 in /  0 mm
13:59 10.6 °F /  -11.9 °C 2.2 °F /  -16.6 °C 1022.9 in /  34635.4 hPa NE 6.4 mph /  10.3 km/h 6.4 mph /  10.3 km/h 56 % 0.0 in /  0 mm
14:04 10.6 °F /  -11.9 °C 2.2 °F /  -16.6 °C 1023.9 in /  34669.3 hPa NNE 7.4 mph /  11.9 km/h 7.4 mph /  11.9 km/h 56 % 0.0 in /  0 mm
14:09 10.5 °F /  -11.9 °C 1.8 °F /  -16.8 °C 1023.9 in /  34669.3 hPa SE 7.4 mph /  11.9 km/h 7.4 mph /  11.9 km/h 55 % 0.0 in /  0 mm
14:14 10.7 °F /  -11.8 °C 2.3 °F /  -16.5 °C 1023.9 in /  34669.3 hPa NE 3.7 mph /  6 km/h 3.7 mph /  6 km/h 56 % 0.0 in /  0 mm
14:19 10.8 °F /  -11.8 °C 2.4 °F /  -16.4 °C 1022.9 in /  34635.4 hPa NW 3.5 mph /  5.6 km/h 3.5 mph /  5.6 km/h 56 % 0.0 in /  0 mm
14:24 11.0 °F /  -11.7 °C 2.6 °F /  -16.3 °C 1022.9 in /  34635.4 hPa NW 3.7 mph /  6 km/h 3.7 mph /  6 km/h 56 % 0.0 in /  0 mm
14:29 11.1 °F /  -11.6 °C 2.4 °F /  -16.4 °C 1022.9 in /  34635.4 hPa ESE 5.6 mph /  9 km/h 5.6 mph /  9 km/h 55 % 0.0 in /  0 mm
14:34 11.1 °F /  -11.6 °C 2.4 °F /  -16.4 °C 1022.9 in /  34635.4 hPa ENE 3.7 mph /  6 km/h 3.7 mph /  6 km/h 55 % 0.0 in /  0 mm
14:39 11.2 °F /  -11.6 °C 2.5 °F /  -16.4 °C 1022.9 in /  34635.4 hPa NE 4.7 mph /  7.6 km/h 4.7 mph /  7.6 km/h 55 % 0.0 in /  0 mm
14:44 11.4 °F /  -11.4 °C 2.7 °F /  -16.3 °C 1022.9 in /  34635.4 hPa NE 3.7 mph /  6 km/h 3.7 mph /  6 km/h 55 % 0.0 in /  0 mm
14:49 11.5 °F /  -11.4 °C 2.8 °F /  -16.2 °C 1021.9 in /  34601.5 hPa ENE 3.7 mph /  6 km/h 3.7 mph /  6 km/h 55 % 0.0 in /  0 mm
14:54 11.7 °F /  -11.3 °C 2.9 °F /  -16.2 °C 1021.9 in /  34601.5 hPa NE 5.6 mph /  9 km/h 5.6 mph /  9 km/h 55 % 0.0 in /  0 mm
14:59 11.6 °F /  -11.3 °C 2.6 °F /  -16.3 °C 1021.9 in /  34601.5 hPa NNE 7.4 mph /  11.9 km/h 7.4 mph /  11.9 km/h 54 % 0.0 in /  0 mm
15:04 11.6 °F /  -11.3 °C 2.6 °F /  -16.3 °C 1021.9 in /  34601.5 hPa ENE 6.4 mph /  10.3 km/h 6.4 mph /  10.3 km/h 54 % 0.0 in /  0 mm
15:09 11.7 °F /  -11.3 °C 2.7 °F /  -16.3 °C 1021.9 in /  34601.5 hPa North 5.6 mph /  9 km/h 5.6 mph /  9 km/h 54 % 0.0 in /  0 mm
15:14 11.8 °F /  -11.2 °C 2.8 °F /  -16.2 °C 1021.9 in /  34601.5 hPa ENE 3.7 mph /  6 km/h 3.7 mph /  6 km/h 54 % 0.0 in /  0 mm
15:19 12.0 °F /  -11.1 °C 2.9 °F /  -16.2 °C 1021.9 in /  34601.5 hPa ESE 5.6 mph /  9 km/h 5.6 mph /  9 km/h 54 % 0.0 in /  0 mm
15:24 12.1 °F /  -11.1 °C 3.1 °F /  -16.1 °C 1021.9 in /  34601.5 hPa ESE 5.6 mph /  9 km/h 5.6 mph /  9 km/h 54 % 0.0 in /  0 mm
15:29 12.2 °F /  -11 °C 3.2 °F /  -16 °C 1021.9 in /  34601.5 hPa ENE 5.6 mph /  9 km/h 5.6 mph /  9 km/h 54 % 0.0 in /  0 mm
15:34 12.2 °F /  -11 °C 3.2 °F /  -16 °C 1021.9 in /  34601.5 hPa NNE 7.4 mph /  11.9 km/h 7.4 mph /  11.9 km/h 54 % 0.0 in /  0 mm
15:39 12.2 °F /  -11 °C 3.2 °F /  -16 °C 1021.9 in /  34601.5 hPa NE 6.4 mph /  10.3 km/h 6.4 mph /  10.3 km/h 54 % 0.0 in /  0 mm
15:44 12.3 °F /  -10.9 °C 3.0 °F /  -16.1 °C 1021.9 in /  34601.5 hPa ENE 7.4 mph /  11.9 km/h 7.4 mph /  11.9 km/h 53 % 0.0 in /  0 mm
15:49 12.4 °F /  -10.9 °C 3.1 °F /  -16.1 °C 1021.9 in /  34601.5 hPa NNW 5.0 mph /  8 km/h 5.0 mph /  8 km/h 53 % 0.0 in /  0 mm
15:54 12.7 °F /  -10.7 °C 3.3 °F /  -15.9 °C 1021.9 in /  34601.5 hPa NW 3.7 mph /  6 km/h 3.7 mph /  6 km/h 53 % 0.0 in /  0 mm
15:59 12.8 °F /  -10.7 °C 3.4 °F /  -15.9 °C 1021.9 in /  34601.5 hPa NE 3.5 mph /  5.6 km/h 3.5 mph /  5.6 km/h 53 % 0.0 in /  0 mm
16:04 12.8 °F /  -10.7 °C 3.4 °F /  -15.9 °C 1020.9 in /  34567.7 hPa ENE 3.7 mph /  6 km/h 3.7 mph /  6 km/h 53 % 0.0 in /  0 mm
16:09 12.7 °F /  -10.7 °C 3.1 °F /  -16.1 °C 1020.9 in /  34567.7 hPa NW 3.7 mph /  6 km/h   52 % 0.0 in /  0 mm
16:14 13.2 °F /  -10.4 °C 3.8 °F /  -15.7 °C 1020.9 in /  34567.7 hPa NE 5.6 mph /  9 km/h 5.6 mph /  9 km/h 53 % 0.0 in /  0 mm
16:19 13.4 °F /  -10.3 °C 3.7 °F /  -15.7 °C 1021.9 in /  34601.5 hPa WNW 5.6 mph /  9 km/h 5.6 mph /  9 km/h 52 % 0.0 in /  0 mm
16:24 13.7 °F /  -10.2 °C 4.0 °F /  -15.6 °C 1021.9 in /  34601.5 hPa NW 5.6 mph /  9 km/h 5.6 mph /  9 km/h 52 % 0.0 in /  0 mm
16:29 13.9 °F /  -10.1 °C 4.2 °F /  -15.4 °C 1021.9 in /  34601.5 hPa West 5.6 mph /  9 km/h 5.6 mph /  9 km/h 52 % 0.0 in /  0 mm
16:34 13.8 °F /  -10.1 °C 3.8 °F /  -15.7 °C 1021.9 in /  34601.5 hPa WSW 5.6 mph /  9 km/h 5.6 mph /  9 km/h 51 % 0.0 in /  0 mm
16:39 13.9 °F /  -10.1 °C 3.9 °F /  -15.6 °C 1021.9 in /  34601.5 hPa NW 5.6 mph /  9 km/h 5.6 mph /  9 km/h 51 % 0.0 in /  0 mm
16:44 13.9 °F /  -10.1 °C 3.9 °F /  -15.6 °C 1021.9 in /  34601.5 hPa West 9.3 mph /  15 km/h 9.3 mph /  15 km/h 51 % 0.0 in /  0 mm
16:49 13.8 °F /  -10.1 °C 3.8 °F /  -15.7 °C 1021.9 in /  34601.5 hPa WNW 5.6 mph /  9 km/h 5.6 mph /  9 km/h 51 % 0.0 in /  0 mm
16:54 13.5 °F /  -10.3 °C 3.6 °F /  -15.8 °C 1021.9 in /  34601.5 hPa West 4.7 mph /  7.6 km/h 4.7 mph /  7.6 km/h 51 % 0.0 in /  0 mm
16:59 13.4 °F /  -10.3 °C 3.4 °F /  -15.9 °C 1021.9 in /  34601.5 hPa West 9.3 mph /  15 km/h 9.3 mph /  15 km/h 51 % 0.0 in /  0 mm
17:04 13.3 °F /  -10.4 °C 3.1 °F /  -16.1 °C 1021.9 in /  34601.5 hPa West 3.7 mph /  6 km/h 3.7 mph /  6 km/h 50 % 0.0 in /  0 mm
17:09 13.3 °F /  -10.4 °C 3.1 °F /  -16.1 °C 1021.9 in /  34601.5 hPa WNW 5.6 mph /  9 km/h 5.6 mph /  9 km/h 50 % 0.0 in /  0 mm
17:14 13.1 °F /  -10.5 °C 2.9 °F /  -16.2 °C 1021.9 in /  34601.5 hPa West 5.6 mph /  9 km/h 5.6 mph /  9 km/h 50 % 0.0 in /  0 mm
17:19 12.9 °F /  -10.6 °C 2.7 °F /  -16.3 °C 1020.9 in /  34567.7 hPa West 5.6 mph /  9 km/h 5.6 mph /  9 km/h 50 % 0.0 in /  0 mm
17:24 12.6 °F /  -10.8 °C 2.4 °F /  -16.4 °C 1020.9 in /  34567.7 hPa WNW 4.2 mph /  6.8 km/h 4.2 mph /  6.8 km/h 50 % 0.0 in /  0 mm
17:29 12.5 °F /  -10.8 °C 2.3 °F /  -16.5 °C 1020.9 in /  34567.7 hPa West 5.6 mph /  9 km/h 5.6 mph /  9 km/h 50 % 0.0 in /  0 mm
17:34 12.3 °F /  -10.9 °C 2.2 °F /  -16.6 °C 1020.9 in /  34567.7 hPa West 3.7 mph /  6 km/h 3.7 mph /  6 km/h 50 % 0.0 in /  0 mm
17:39 12.0 °F /  -11.1 °C 1.9 °F /  -16.7 °C 1020.9 in /  34567.7 hPa WSW 5.0 mph /  8 km/h 5.0 mph /  8 km/h 50 % 0.0 in /  0 mm
17:44 11.8 °F /  -11.2 °C 1.7 °F /  -16.8 °C 1020.9 in /  34567.7 hPa NNW 5.6 mph /  9 km/h 5.6 mph /  9 km/h 50 % 0.0 in /  0 mm
17:49 11.6 °F /  -11.3 °C 1.5 °F /  -16.9 °C 1020.9 in /  34567.7 hPa NW 4.7 mph /  7.6 km/h 5.0 mph /  8 km/h 50 % 0.0 in /  0 mm
17:54 11.4 °F /  -11.4 °C 1.3 °F /  -17.1 °C 1020.9 in /  34567.7 hPa NW 7.6 mph /  12.2 km/h 7.6 mph /  12.2 km/h 50 % 0.0 in /  0 mm
17:59 11.3 °F /  -11.5 °C 1.2 °F /  -17.1 °C 1020.9 in /  34567.7 hPa West 9.3 mph /  15 km/h 9.3 mph /  15 km/h 50 % 0.0 in /  0 mm
18:04 11.1 °F /  -11.6 °C 1.1 °F /  -17.2 °C 1020.9 in /  34567.7 hPa NE 9.3 mph /  15 km/h 9.3 mph /  15 km/h 50 % 0.0 in /  0 mm
18:09 10.9 °F /  -11.7 °C 0.9 °F /  -17.3 °C 1020.9 in /  34567.7 hPa WNW 6.1 mph /  9.8 km/h 6.1 mph /  9.8 km/h 50 % 0.0 in /  0 mm
18:14 10.8 °F /  -11.8 °C 0.8 °F /  -17.3 °C 1020.9 in /  34567.7 hPa WSW 5.6 mph /  9 km/h 5.6 mph /  9 km/h 50 % 0.0 in /  0 mm
18:19 10.6 °F /  -11.9 °C 0.6 °F /  -17.4 °C 1020.9 in /  34567.7 hPa West 5.0 mph /  8 km/h 5.0 mph /  8 km/h 50 % 0.0 in /  0 mm
18:24 10.5 °F /  -11.9 °C 0.5 °F /  -17.5 °C 1020.9 in /  34567.7 hPa NW 7.4 mph /  11.9 km/h 7.4 mph /  11.9 km/h 50 % 0.0 in /  0 mm
18:29 10.4 °F /  -12 °C 0.4 °F /  -17.6 °C 1020.9 in /  34567.7 hPa WNW 3.7 mph /  6 km/h 4.2 mph /  6.8 km/h 50 % 0.0 in /  0 mm
18:34 10.3 °F /  -12.1 °C 0.3 °F /  -17.6 °C 1020.9 in /  34567.7 hPa West 4.7 mph /  7.6 km/h 4.7 mph /  7.6 km/h 50 % 0.0 in /  0 mm
18:39 10.2 °F /  -12.1 °C 0.5 °F /  -17.5 °C 1020.9 in /  34567.7 hPa SW 3.7 mph /  6 km/h   51 % 0.0 in /  0 mm
18:44 10.1 °F /  -12.2 °C 0.4 °F /  -17.6 °C 1020.9 in /  34567.7 hPa WSW 5.6 mph /  9 km/h 5.6 mph /  9 km/h 51 % 0.0 in /  0 mm
18:49 10.0 °F /  -12.2 °C 0.3 °F /  -17.6 °C 1020.9 in /  34567.7 hPa SW 5.6 mph /  9 km/h 5.6 mph /  9 km/h 51 % 0.0 in /  0 mm
18:50 5.5 °F /  -14.7 °C -1.0 °F /  -18.3 °C 1019.9 in /  34533.8 hPa Calm   1.6 mph /  2.6 km/h 63 % 0.0 in /  0 mm
18:54 9.9 °F /  -12.3 °C 0.2 °F /  -17.7 °C 1020.9 in /  34567.7 hPa NW 3.7 mph /  6 km/h 3.7 mph /  6 km/h 51 % 0.0 in /  0 mm
18:59 9.9 °F /  -12.3 °C 0.2 °F /  -17.7 °C 1020.9 in /  34567.7 hPa NNW 3.7 mph /  6 km/h   51 % 0.0 in /  0 mm
19:00 5.6 °F /  -14.7 °C -0.9 °F /  -18.3 °C 1019.9 in /  34533.8 hPa Calm   1.6 mph /  2.6 km/h 63 % 0.0 in /  0 mm
19:04 9.8 °F /  -12.3 °C 0.1 °F /  -17.7 °C 1020.9 in /  34567.7 hPa WNW 4.7 mph /  7.6 km/h 4.7 mph /  7.6 km/h 51 % 0.0 in /  0 mm
19:09 9.7 °F /  -12.4 °C 0.1 °F /  -17.7 °C 1020.9 in /  34567.7 hPa WSW 5.6 mph /  9 km/h 5.6 mph /  9 km/h 51 % 0.0 in /  0 mm
19:10 5.5 °F /  -14.7 °C -1.0 °F /  -18.3 °C 1018.8 in /  34496.6 hPa Calm   1.6 mph /  2.6 km/h 63 % 0.0 in /  0 mm
19:14 9.6 °F /  -12.4 °C -0.1 °F /  -17.8 °C 1020.9 in /  34567.7 hPa NNE 3.7 mph /  6 km/h 3.7 mph /  6 km/h 51 % 0.0 in /  0 mm
19:19 9.4 °F /  -12.6 °C -0.2 °F /  -17.9 °C 1020.9 in /  34567.7 hPa WSW 3.9 mph /  6.3 km/h 3.9 mph /  6.3 km/h 51 % 0.0 in /  0 mm
19:20 5.3 °F /  -14.8 °C -0.9 °F /  -18.3 °C 1019.9 in /  34533.8 hPa NNW 1.6 mph /  2.6 km/h 3.2 mph /  5.1 km/h 64 % 0.0 in /  0 mm
19:24 9.3 °F /  -12.6 °C -0.3 °F /  -17.9 °C 1020.9 in /  34567.7 hPa WNW 3.7 mph /  6 km/h 4.2 mph /  6.8 km/h 51 % 0.0 in /  0 mm
19:29 9.2 °F /  -12.7 °C -0.2 °F /  -17.9 °C 1020.9 in /  34567.7 hPa WSW 3.7 mph /  6 km/h 3.7 mph /  6 km/h 52 % 0.0 in /  0 mm
19:30 5.1 °F /  -14.9 °C -1.2 °F /  -18.4 °C 1019.9 in /  34533.8 hPa Calm   3.2 mph /  5.1 km/h 64 % 0.0 in /  0 mm
19:34 9.2 °F /  -12.7 °C -0.2 °F /  -17.9 °C 1020.9 in /  34567.7 hPa ENE 3.9 mph /  6.3 km/h 3.9 mph /  6.3 km/h 52 % 0.0 in /  0 mm
19:39 9.2 °F /  -12.7 °C -0.2 °F /  -17.9 °C 1020.9 in /  34567.7 hPa North 7.4 mph /  11.9 km/h 7.4 mph /  11.9 km/h 52 % 0.0 in /  0 mm
19:40 5.1 °F /  -14.9 °C -1.2 °F /  -18.4 °C 1018.8 in /  34496.6 hPa NE 3.2 mph /  5.1 km/h 3.2 mph /  5.1 km/h 64 % 0.0 in /  0 mm
19:44 9.0 °F /  -12.8 °C -0.3 °F /  -17.9 °C 1020.9 in /  34567.7 hPa WSW 3.7 mph /  6 km/h 3.7 mph /  6 km/h 52 % 0.0 in /  0 mm
19:49 8.9 °F /  -12.8 °C -0.4 °F /  -18 °C 1020.9 in /  34567.7 hPa ENE 1.9 mph /  3.1 km/h   52 % 0.0 in /  0 mm
19:50 5.0 °F /  -15 °C -1.3 °F /  -18.5 °C 1018.8 in /  34496.6 hPa Calm   1.6 mph /  2.6 km/h 64 % 0.0 in /  0 mm
19:54 8.9 °F /  -12.8 °C -0.4 °F /  -18 °C 1020.9 in /  34567.7 hPa NE 5.6 mph /  9 km/h 5.6 mph /  9 km/h 52 % 0.0 in /  0 mm
19:59 8.8 °F /  -12.9 °C -0.6 °F /  -18.1 °C 1020.9 in /  34567.7 hPa ENE 3.7 mph /  6 km/h 3.7 mph /  6 km/h 52 % 0.0 in /  0 mm
20:00 4.7 °F /  -15.2 °C -1.6 °F /  -18.7 °C 1018.8 in /  34496.6 hPa Calm   1.6 mph /  2.6 km/h 64 % 0.0 in /  0 mm
20:04 8.8 °F /  -12.9 °C -0.6 °F /  -18.1 °C 1019.9 in /  34533.8 hPa NNE 7.4 mph /  11.9 km/h 7.4 mph /  11.9 km/h 52 % 0.0 in /  0 mm
20:09 8.7 °F /  -12.9 °C -0.3 °F /  -17.9 °C 1019.9 in /  34533.8 hPa NW 1.9 mph /  3.1 km/h 1.9 mph /  3.1 km/h 53 % 0.0 in /  0 mm
20:10 4.6 °F /  -15.2 °C -1.4 °F /  -18.6 °C 1017.8 in /  34462.7 hPa Calm   1.6 mph /  2.6 km/h 65 % 0.0 in /  0 mm
20:14 8.6 °F /  -13 °C -0.4 °F /  -18 °C 1019.9 in /  34533.8 hPa North 1.9 mph /  3.1 km/h 1.9 mph /  3.1 km/h 53 % 0.0 in /  0 mm
20:19 8.5 °F /  -13.1 °C -0.6 °F /  -18.1 °C 1019.9 in /  34533.8 hPa West 1.9 mph /  3.1 km/h   53 % 0.0 in /  0 mm
20:20 4.6 °F /  -15.2 °C -1.4 °F /  -18.6 °C 1017.8 in /  34462.7 hPa WNW 1.6 mph /  2.6 km/h 1.6 mph /  2.6 km/h 65 % 0.0 in /  0 mm
20:24 8.6 °F /  -13 °C -0.4 °F /  -18 °C 1019.9 in /  34533.8 hPa West 2.6 mph /  4.2 km/h 2.6 mph /  4.2 km/h 53 % 0.0 in /  0 mm
20:29 8.6 °F /  -13 °C -0.4 °F /  -18 °C 1019.9 in /  34533.8 hPa WNW 1.9 mph /  3.1 km/h   53 % 0.0 in /  0 mm
20:30 4.3 °F /  -15.4 °C -1.7 °F /  -18.7 °C 1017.8 in /  34462.7 hPa WSW 1.6 mph /  2.6 km/h 3.2 mph /  5.1 km/h 65 % 0.0 in /  0 mm
20:34 8.4 °F /  -13.1 °C -0.6 °F /  -18.1 °C 1019.9 in /  34533.8 hPa ENE 1.9 mph /  3.1 km/h 1.9 mph /  3.1 km/h 53 % 0.0 in /  0 mm
20:39 8.3 °F /  -13.2 °C -0.7 °F /  -18.2 °C 1019.9 in /  34533.8 hPa ENE 1.9 mph /  3.1 km/h   53 % 0.0 in /  0 mm
20:40 4.4 °F /  -15.3 °C -1.4 °F /  -18.6 °C 1017.8 in /  34462.7 hPa Calm   4.8 mph /  7.7 km/h 66 % 0.0 in /  0 mm
20:44 8.2 °F /  -13.2 °C -0.8 °F /  -18.2 °C 1019.9 in /  34533.8 hPa Calm     53 % 0.0 in /  0 mm
20:49 8.0 °F /  -13.3 °C -1.0 °F /  -18.3 °C 1019.9 in /  34533.8 hPa SW 2.3 mph /  3.7 km/h 2.3 mph /  3.7 km/h 53 % 0.0 in /  0 mm
20:50 4.4 °F /  -15.3 °C -1.4 °F /  -18.6 °C 1017.8 in /  34462.7 hPa Calm   3.2 mph /  5.1 km/h 66 % 0.0 in /  0 mm
20:54 7.8 °F /  -13.4 °C -0.9 °F /  -18.3 °C 1019.9 in /  34533.8 hPa SW 1.9 mph /  3.1 km/h 1.9 mph /  3.1 km/h 54 % 0.0 in /  0 mm
20:59 7.7 °F /  -13.5 °C -1.1 °F /  -18.4 °C 1019.9 in /  34533.8 hPa Calm     54 % 0.0 in /  0 mm
21:00 4.3 °F /  -15.4 °C -1.7 °F /  -18.7 °C 1017.8 in /  34462.7 hPa WNW 3.2 mph /  5.1 km/h 3.2 mph /  5.1 km/h 65 % 0.0 in /  0 mm
21:04 7.7 °F /  -13.5 °C -1.1 °F /  -18.4 °C 1019.9 in /  34533.8 hPa SW 3.7 mph /  6 km/h 3.7 mph /  6 km/h 54 % 0.0 in /  0 mm
21:09 7.8 °F /  -13.4 °C -0.9 °F /  -18.3 °C 1019.9 in /  34533.8 hPa SW 3.7 mph /  6 km/h 3.7 mph /  6 km/h 54 % 0.0 in /  0 mm
21:10 4.2 °F /  -15.4 °C -1.8 °F /  -18.8 °C 1018.8 in /  34496.6 hPa West 3.2 mph /  5.1 km/h 4.8 mph /  7.7 km/h 65 % 0.0 in /  0 mm
21:14 7.7 °F /  -13.5 °C -1.1 °F /  -18.4 °C 1019.9 in /  34533.8 hPa WSW 1.9 mph /  3.1 km/h   54 % 0.0 in /  0 mm
21:19 7.7 °F /  -13.5 °C -1.1 °F /  -18.4 °C 1019.9 in /  34533.8 hPa WSW 1.9 mph /  3.1 km/h   54 % 0.0 in /  0 mm
21:20 4.1 °F /  -15.5 °C -1.7 °F /  -18.7 °C 1017.8 in /  34462.7 hPa Calm   4.8 mph /  7.7 km/h 66 % 0.0 in /  0 mm
21:24 7.7 °F /  -13.5 °C -1.1 °F /  -18.4 °C 1019.9 in /  34533.8 hPa ENE 2.3 mph /  3.7 km/h 2.3 mph /  3.7 km/h 54 % 0.0 in /  0 mm
21:29 7.7 °F /  -13.5 °C -0.8 °F /  -18.2 °C 1019.9 in /  34533.8 hPa NW 1.9 mph /  3.1 km/h   55 % 0.0 in /  0 mm
21:30 3.9 °F /  -15.6 °C -1.9 °F /  -18.8 °C 1017.8 in /  34462.7 hPa SW 3.2 mph /  5.1 km/h 3.2 mph /  5.1 km/h 66 % 0.0 in /  0 mm
21:34 7.7 °F /  -13.5 °C -0.8 °F /  -18.2 °C 1019.9 in /  34533.8 hPa NNE 3.7 mph /  6 km/h 3.7 mph /  6 km/h 55 % 0.0 in /  0 mm
21:39 7.6 °F /  -13.6 °C -0.9 °F /  -18.3 °C 1019.9 in /  34533.8 hPa WNW 1.9 mph /  3.1 km/h   55 % 0.0 in /  0 mm
21:40 3.7 °F /  -15.7 °C -2.1 °F /  -18.9 °C 1017.8 in /  34462.7 hPa SW 3.2 mph /  5.1 km/h 4.8 mph /  7.7 km/h 66 % 0.0 in /  0 mm
21:44 7.4 °F /  -13.7 °C -0.8 °F /  -18.2 °C 1019.9 in /  34533.8 hPa Calm     56 % 0.0 in /  0 mm
21:49 7.4 °F /  -13.7 °C -0.8 °F /  -18.2 °C 1019.9 in /  34533.8 hPa NNE 3.7 mph /  6 km/h 3.7 mph /  6 km/h 56 % 0.0 in /  0 mm
21:50 3.8 °F /  -15.7 °C -2.0 °F /  -18.9 °C 1017.8 in /  34462.7 hPa WSW 3.2 mph /  5.1 km/h 4.8 mph /  7.7 km/h 66 % 0.0 in /  0 mm
21:54 7.2 °F /  -13.8 °C -0.8 °F /  -18.2 °C 1019.9 in /  34533.8 hPa WNW 2.6 mph /  4.2 km/h   57 % 0.0 in /  0 mm
21:59 7.2 °F /  -13.8 °C -0.8 °F /  -18.2 °C 1019.9 in /  34533.8 hPa WNW 1.9 mph /  3.1 km/h   57 % 0.0 in /  0 mm
22:00 4.0 °F /  -15.6 °C -1.8 °F /  -18.8 °C 1017.8 in /  34462.7 hPa West 3.2 mph /  5.1 km/h 6.4 mph /  10.3 km/h 66 % 0.0 in /  0 mm
22:04 7.1 °F /  -13.8 °C -0.8 °F /  -18.2 °C 1018.8 in /  34496.6 hPa ENE 3.7 mph /  6 km/h   57 % 0.0 in /  0 mm
22:09 7.0 °F /  -13.9 °C -0.9 °F /  -18.3 °C 1018.8 in /  34496.6 hPa WSW 3.7 mph /  6 km/h 3.7 mph /  6 km/h 57 % 0.0 in /  0 mm
22:10 4.0 °F /  -15.6 °C -1.4 °F /  -18.6 °C 1017.8 in /  34462.7 hPa WSW 1.6 mph /  2.6 km/h 3.2 mph /  5.1 km/h 68 % 0.0 in /  0 mm
22:14 6.6 °F /  -14.1 °C -1.3 °F /  -18.5 °C 1018.8 in /  34496.6 hPa SW 3.7 mph /  6 km/h 3.7 mph /  6 km/h 57 % 0.0 in /  0 mm
22:19 6.6 °F /  -14.1 °C -1.3 °F /  -18.5 °C 1020.9 in /  34567.7 hPa WNW 5.6 mph /  9 km/h 5.6 mph /  9 km/h 57 % 0.0 in /  0 mm
22:20 4.0 °F /  -15.6 °C -1.6 °F /  -18.7 °C 1017.8 in /  34462.7 hPa West 1.6 mph /  2.6 km/h 3.2 mph /  5.1 km/h 67 % 0.0 in /  0 mm
22:24 6.8 °F /  -14 °C -1.1 °F /  -18.4 °C 1020.9 in /  34567.7 hPa WSW 5.6 mph /  9 km/h 5.6 mph /  9 km/h 57 % 0.0 in /  0 mm
22:29 6.9 °F /  -13.9 °C -0.8 °F /  -18.2 °C 1020.9 in /  34567.7 hPa WSW 3.7 mph /  6 km/h 3.7 mph /  6 km/h 58 % 0.0 in /  0 mm
22:34 6.8 °F /  -14 °C -0.9 °F /  -18.3 °C 1021.9 in /  34601.5 hPa SW 3.7 mph /  6 km/h 3.7 mph /  6 km/h 58 % 0.0 in /  0 mm
22:39 6.8 °F /  -14 °C -0.9 °F /  -18.3 °C 1021.9 in /  34601.5 hPa SW 2.3 mph /  3.7 km/h 2.3 mph /  3.7 km/h 58 % 0.0 in /  0 mm
22:40 4.0 °F /  -15.6 °C -1.2 °F /  -18.4 °C 1016.8 in /  34428.8 hPa NW 1.6 mph /  2.6 km/h 3.2 mph /  5.1 km/h 69 % 0.0 in /  0 mm
22:44 6.7 °F /  -14.1 °C -1.0 °F /  -18.3 °C 1021.9 in /  34601.5 hPa SW 1.9 mph /  3.1 km/h 2.3 mph /  3.7 km/h 58 % 0.0 in /  0 mm
22:49 6.5 °F /  -14.2 °C -0.9 °F /  -18.3 °C 1020.9 in /  34567.7 hPa WSW 1.9 mph /  3.1 km/h   59 % 0.0 in /  0 mm
22:50 4.1 °F /  -15.5 °C -1.3 °F /  -18.5 °C 1017.8 in /  34462.7 hPa Calm   3.2 mph /  5.1 km/h 68 % 0.0 in /  0 mm
22:54 6.4 °F /  -14.2 °C -1.1 °F /  -18.4 °C 1020.9 in /  34567.7 hPa SW 1.9 mph /  3.1 km/h 1.9 mph /  3.1 km/h 59 % 0.0 in /  0 mm
22:59 6.3 °F /  -14.3 °C -1.1 °F /  -18.4 °C 1020.9 in /  34567.7 hPa SW 1.9 mph /  3.1 km/h   59 % 0.0 in /  0 mm
23:00 4.1 °F /  -15.5 °C -1.1 °F /  -18.4 °C 1017.8 in /  34462.7 hPa Calm   1.6 mph /  2.6 km/h 69 % 0.0 in /  0 mm
23:04 6.2 °F /  -14.3 °C -1.0 °F /  -18.3 °C 1020.9 in /  34567.7 hPa East 2.6 mph /  4.2 km/h 2.6 mph /  4.2 km/h 60 % 0.0 in /  0 mm
23:09 6.2 °F /  -14.3 °C -1.0 °F /  -18.3 °C 1020.9 in /  34567.7 hPa NNE 2.3 mph /  3.7 km/h   60 % 0.0 in /  0 mm
23:10 3.9 °F /  -15.6 °C -1.3 °F /  -18.5 °C 1018.8 in /  34496.6 hPa North 1.6 mph /  2.6 km/h 3.2 mph /  5.1 km/h 69 % 0.0 in /  0 mm
23:14 6.3 °F /  -14.3 °C -0.9 °F /  -18.3 °C 1020.9 in /  34567.7 hPa SW 3.7 mph /  6 km/h 3.7 mph /  6 km/h 60 % 0.0 in /  0 mm
23:19 6.2 °F /  -14.3 °C -1.0 °F /  -18.3 °C 1020.9 in /  34567.7 hPa WNW 3.7 mph /  6 km/h 3.7 mph /  6 km/h 60 % 0.0 in /  0 mm
23:20 3.9 °F /  -15.6 °C -1.3 °F /  -18.5 °C 1017.8 in /  34462.7 hPa North 1.6 mph /  2.6 km/h 3.2 mph /  5.1 km/h 69 % 0.0 in /  0 mm
23:24 6.2 °F /  -14.3 °C -0.8 °F /  -18.2 °C 1020.9 in /  34567.7 hPa South 1.9 mph /  3.1 km/h   61 % 0.0 in /  0 mm
23:29 6.2 °F /  -14.3 °C -0.8 °F /  -18.2 °C 1020.9 in /  34567.7 hPa Calm     61 % 0.0 in /  0 mm
23:30 4.0 °F /  -15.6 °C -1.2 °F /  -18.4 °C 1017.8 in /  34462.7 hPa Calm     69 % 0.0 in /  0 mm
23:34 6.2 °F /  -14.3 °C -0.8 °F /  -18.2 °C 1019.9 in /  34533.8 hPa WSW 1.9 mph /  3.1 km/h 1.9 mph /  3.1 km/h 61 % 0.0 in /  0 mm
23:39 5.9 °F /  -14.5 °C -1.1 °F /  -18.4 °C 1019.9 in /  34533.8 hPa WSW 3.7 mph /  6 km/h 3.7 mph /  6 km/h 61 % 0.0 in /  0 mm
23:40 3.9 °F /  -15.6 °C -1.3 °F /  -18.5 °C 1018.8 in /  34496.6 hPa Calm   1.6 mph /  2.6 km/h 69 % 0.0 in /  0 mm
23:44 6.1 °F /  -14.4 °C -0.7 °F /  -18.2 °C 1019.9 in /  34533.8 hPa WSW 3.7 mph /  6 km/h 3.7 mph /  6 km/h 62 % 0.0 in /  0 mm
23:49 5.7 °F /  -14.6 °C -1.2 °F /  -18.4 °C 1019.9 in /  34533.8 hPa WSW 1.9 mph /  3.1 km/h 1.9 mph /  3.1 km/h 61 % 0.0 in /  0 mm
23:50 3.9 °F /  -15.6 °C -1.1 °F /  -18.4 °C 1017.8 in /  34462.7 hPa Calm   1.6 mph /  2.6 km/h 70 % 0.0 in /  0 mm
23:54 5.7 °F /  -14.6 °C -1.0 °F /  -18.3 °C 1019.9 in /  34533.8 hPa Calm     62 % 0.0 in /  0 mm
23:59 5.7 °F /  -14.6 °C -1.2 °F /  -18.4 °C 1019.9 in /  34533.8 hPa WSW 2.6 mph /  4.2 km/h 2.6 mph /  4.2 km/h 61 % 0.0 in /  0 mm
Meteo Sesrovires
Elogis d' Weather Underground - 1.75 mb

Guio original per  Jim McMurry - jmcmurry@mwt.net Adaptat per a la plantilla per  Wim van der Kuil - Leuven-Template.eu

Trobareu la nostra informacio del temps tambe a:

Weather Underground

AWEKAS